createdAt,value
2022-11-16T00:05:02.973Z,994.83
2022-11-16T00:11:25.988Z,994.81
2022-11-16T00:17:45.994Z,994.77
2022-11-16T00:24:08.980Z,994.75
2022-11-16T00:30:29.015Z,994.77
2022-11-16T00:36:52.017Z,994.65
2022-11-16T00:43:12.012Z,994.63
2022-11-16T00:49:34.978Z,994.61
2022-11-16T00:55:55.052Z,994.55
2022-11-16T01:02:17.996Z,994.55
2022-11-16T01:08:37.991Z,994.55
2022-11-16T01:15:01.021Z,994.55
2022-11-16T01:21:20.974Z,994.59
2022-11-16T01:27:44.000Z,994.53
2022-11-16T01:34:04.015Z,994.51
2022-11-16T01:40:26.997Z,994.47
2022-11-16T01:46:46.990Z,994.47
2022-11-16T01:53:10.008Z,994.47
2022-11-16T01:59:29.970Z,994.45
2022-11-16T02:05:53.009Z,994.42
2022-11-16T02:12:13.006Z,994.4
2022-11-16T02:18:36.325Z,994.32
2022-11-16T02:24:56.000Z,994.34
2022-11-16T02:31:19.022Z,994.34
2022-11-16T02:37:38.985Z,994.32
2022-11-16T02:44:01.990Z,994.28
2022-11-16T02:50:22.032Z,994.24
2022-11-16T02:56:44.996Z,994.14
2022-11-16T03:03:04.977Z,994.08
2022-11-16T03:09:28.002Z,993.98
2022-11-16T03:15:48.000Z,993.93
2022-11-16T03:22:10.973Z,993.95
2022-11-16T03:28:31.240Z,993.93
2022-11-16T03:34:53.998Z,994.02
2022-11-16T03:41:14.007Z,994.14
2022-11-16T03:47:37.007Z,994.14
2022-11-16T03:53:57.013Z,994.18
2022-11-16T04:00:19.995Z,994.2
2022-11-16T04:06:40.009Z,994.28
2022-11-16T04:13:03.024Z,994.34
2022-11-16T04:19:22.991Z,994.4
2022-11-16T04:36:00.504Z,994.4
2022-11-16T04:42:20.053Z,994.49
2022-11-16T04:48:42.986Z,994.53
2022-11-16T04:55:03.005Z,994.61
2022-11-16T05:01:26.022Z,994.63
2022-11-16T05:07:45.988Z,994.63
2022-11-16T05:14:09.023Z,994.65
2022-11-16T05:20:29.020Z,994.65
2022-11-16T05:26:51.987Z,994.63
2022-11-16T05:33:12.039Z,994.67
2022-11-16T05:39:35.036Z,994.69
2022-11-16T05:45:54.983Z,994.71
2022-11-16T05:52:18.026Z,994.75
2022-11-16T05:58:37.993Z,994.75
2022-11-16T06:05:01.035Z,994.79
2022-11-16T06:11:20.983Z,994.85
2022-11-16T06:17:44.280Z,994.9
2022-11-16T06:24:04.016Z,995.06
2022-11-16T06:30:27.038Z,995.2
2022-11-16T06:36:47.329Z,995.32
2022-11-16T06:43:09.972Z,995.44
2022-11-16T06:49:29.983Z,995.5
2022-11-16T06:55:53.102Z,995.54
2022-11-16T07:02:13.006Z,995.63
2022-11-16T07:08:36.390Z,995.67
2022-11-16T07:14:56.013Z,995.77
2022-11-16T07:21:19.006Z,995.85
2022-11-16T07:27:39.019Z,995.91
2022-11-16T07:34:02.067Z,996.01
2022-11-16T07:40:21.993Z,996.1
2022-11-16T07:46:46.864Z,996.14
2022-11-16T07:53:05.117Z,996.22
2022-11-16T07:59:28.012Z,996.24
2022-11-16T08:05:48.041Z,996.4
2022-11-16T08:12:11.118Z,996.5
2022-11-16T08:18:31.207Z,996.59
2022-11-16T08:24:54.011Z,996.67
2022-11-16T08:31:14.006Z,996.79
2022-11-16T08:37:36.978Z,996.89
2022-11-16T08:43:56.993Z,997
2022-11-16T08:50:20.015Z,997.08
2022-11-16T08:56:39.997Z,997.04
2022-11-16T09:03:03.020Z,997.06
2022-11-16T09:09:23.159Z,997.1
2022-11-16T09:15:45.977Z,997.06
2022-11-16T09:22:06.007Z,997.02
2022-11-16T09:28:29.100Z,996.99
2022-11-16T09:44:36.003Z,997.08
2022-11-16T09:50:55.981Z,997.02
2022-11-16T09:57:19.012Z,997.08
2022-11-16T10:03:39.114Z,997.1
2022-11-16T10:10:01.997Z,997.08
2022-11-16T10:16:21.996Z,997
2022-11-16T10:22:45.132Z,996.93
2022-11-16T10:29:04.982Z,996.85
2022-11-16T10:35:28.015Z,996.83
2022-11-16T10:41:48.103Z,996.81
2022-11-16T10:48:11.028Z,996.73
2022-11-16T10:54:31.035Z,996.61
2022-11-16T11:00:54.126Z,996.57
2022-11-16T11:07:14.010Z,996.5
2022-11-16T11:13:37.199Z,996.42
2022-11-16T11:19:57.016Z,996.36
2022-11-16T11:26:19.981Z,996.3
2022-11-16T11:32:40.030Z,996.24
2022-11-16T11:39:03.149Z,996.16
2022-11-16T11:45:23.002Z,996.12
2022-11-16T11:51:46.000Z,995.99
2022-11-16T11:58:06.091Z,995.91
2022-11-16T12:04:28.998Z,995.77
2022-11-16T12:10:48.992Z,995.75
2022-11-16T12:17:11.998Z,995.71
2022-11-16T12:23:32.214Z,995.58
2022-11-16T12:29:54.984Z,995.58
2022-11-16T12:36:15.120Z,995.54
2022-11-16T12:42:37.980Z,995.44
2022-11-16T12:48:57.977Z,995.36
2022-11-16T12:55:26.230Z,995.34
2022-11-16T13:01:40.995Z,995.26
2022-11-16T13:08:04.111Z,995.24
2022-11-16T13:14:24.214Z,995.24
2022-11-16T13:20:46.990Z,995.2
2022-11-16T13:27:07.003Z,995.06
2022-11-16T13:33:30.013Z,995.06
2022-11-16T13:39:50.008Z,994.98
2022-11-16T13:46:22.446Z,994.94
2022-11-16T13:52:55.483Z,994.85
2022-11-16T13:58:56.017Z,994.79
2022-11-16T14:05:15.991Z,994.77
2022-11-16T14:11:39.351Z,994.77
2022-11-16T14:17:58.982Z,994.79
2022-11-16T14:24:22.016Z,994.75
2022-11-16T14:30:42.018Z,994.73
2022-11-16T14:37:05.000Z,994.69
2022-11-16T14:43:25.014Z,994.69
2022-11-16T14:49:48.136Z,994.71
2022-11-16T15:12:35.618Z,994.53
2022-11-16T15:18:54.985Z,994.42
2022-11-16T15:25:17.989Z,994.3
2022-11-16T15:31:38.138Z,994.28
2022-11-16T15:38:02.138Z,994.26
2022-11-16T15:44:22.016Z,994.18
2022-11-16T15:50:45.110Z,994.18
2022-11-16T15:57:04.989Z,994.16
2022-11-16T16:03:28.270Z,994.06
2022-11-16T16:09:48.004Z,994
2022-11-16T16:16:11.032Z,993.96
2022-11-16T16:22:31.012Z,993.91
2022-11-16T16:28:54.017Z,993.91
2022-11-16T16:35:13.981Z,993.93
2022-11-16T16:41:37.072Z,993.98
2022-11-16T16:47:57.094Z,993.95
2022-11-16T16:54:20.014Z,993.89
2022-11-16T17:00:40.030Z,993.83
2022-11-16T17:07:03.140Z,993.77
2022-11-16T17:13:23.002Z,993.67
2022-11-16T17:19:46.209Z,993.59
2022-11-16T17:26:06.095Z,993.49
2022-11-16T17:32:28.986Z,993.44
2022-11-16T17:38:48.982Z,993.38
2022-11-16T17:45:12.129Z,993.3
2022-11-16T17:51:31.983Z,993.32
2022-11-16T17:57:55.034Z,993.28
2022-11-16T18:04:15.091Z,993.18
2022-11-16T18:10:37.991Z,993.1
2022-11-16T18:16:58.019Z,993.1
2022-11-16T18:23:21.403Z,993.08
2022-11-16T18:29:41.048Z,993.06
2022-11-16T18:36:03.982Z,993.06
2022-11-16T18:42:24.176Z,993.1
2022-11-16T18:48:46.975Z,993.1
2022-11-16T18:55:06.990Z,993.12
2022-11-16T19:01:30.084Z,993.02
2022-11-16T19:07:49.967Z,993.02
2022-11-16T19:14:13.013Z,992.95
2022-11-16T19:20:33.027Z,992.83
2022-11-16T19:26:56.119Z,992.81
2022-11-16T19:33:15.977Z,992.79
2022-11-16T19:39:39.107Z,992.77
2022-11-16T19:45:58.994Z,992.73
2022-11-16T19:52:22.000Z,992.73
2022-11-16T20:16:03.764Z,992.37
2022-11-16T20:22:23.995Z,992.18
2022-11-16T20:28:46.980Z,991.98
2022-11-16T20:35:07.013Z,991.78
2022-11-16T20:41:29.991Z,991.73
2022-11-16T20:47:49.990Z,991.71
2022-11-16T20:54:13.100Z,991.67
2022-11-16T21:00:32.985Z,991.61
2022-11-16T21:06:56.048Z,991.55
2022-11-16T21:13:16.124Z,991.49
2022-11-16T21:19:39.019Z,991.43
2022-11-16T21:25:58.995Z,991.41
2022-11-16T21:32:22.168Z,991.31
2022-11-16T21:38:41.973Z,991.26
2022-11-16T21:45:04.992Z,991.08
2022-11-16T21:51:25.136Z,990.94
2022-11-16T21:57:48.049Z,990.79
2022-11-16T22:04:08.053Z,990.67
2022-11-16T22:10:30.998Z,990.53
2022-11-16T22:16:50.994Z,990.49
2022-11-16T22:23:16.438Z,990.41
2022-11-16T22:29:34.024Z,990.3
2022-11-16T22:35:57.006Z,990.16
2022-11-16T22:42:16.982Z,989.98
2022-11-16T22:48:40.050Z,989.92
2022-11-16T22:54:59.986Z,989.76
2022-11-16T23:20:34.110Z,989.06
2022-11-16T23:26:53.997Z,988.98
2022-11-16T23:33:17.009Z,988.88
2022-11-16T23:39:37.108Z,988.76
2022-11-16T23:45:59.997Z,988.53
2022-11-16T23:52:19.983Z,988.35
2022-11-16T23:58:43.159Z,988.14
